Time;durP1;ratioP1;P1;durP2;ratioP2;P2;SDS_P1;SDS_P2;PMS_P1;PMS_P2;Temp;Humidity;BMP_temperature;BMP_pressure;BME280_temperature;BME280_humidity;BME280_pressure;Samples;Min_cycle;Max_cycle;Signal;HPM_P1;HPM_P2
2023/10/03 00:02:06;;;;;;;17.40;8.90;;;;;;;15.06;93.37;64543.19;5071947;28;20292;-55
2023/10/03 00:04:32;;;;;;;11.50;7.70;;;;;;;14.72;94.62;64507.81;5072269;28;20300;-53
2023/10/03 00:06:57;;;;;;;16.38;8.50;;;;;;;14.71;96.26;64504.16;5070615;28;20209;-54
2023/10/03 00:09:23;;;;;;;15.15;8.60;;;;;;;14.76;97.33;64512.19;5072260;28;20207;-53
2023/10/03 00:11:49;;;;;;;15.20;8.32;;;;;;;14.86;96.84;64521.22;5071830;28;20209;-52
2023/10/03 00:14:15;;;;;;;12.85;8.23;;;;;;;14.90;96.17;64528.13;5072076;28;20188;-56
2023/10/03 00:16:41;;;;;;;10.65;7.53;;;;;;;14.95;97.37;64533.63;5071740;28;20209;-52
2023/10/03 00:19:07;;;;;;;14.98;8.18;;;;;;;14.95;97.71;64531.09;5071882;28;20204;-56
2023/10/03 00:21:33;;;;;;;16.88;8.48;;;;;;;14.93;98.09;64528.34;5071867;28;20683;-58
2023/10/03 00:24:01;;;;;;;13.35;7.88;;;;;;;14.96;96.38;64532.19;5070567;28;20228;-53
2023/10/03 00:26:28;;;;;;;11.43;7.50;;;;;;;15.12;95.27;64549.78;5071801;28;20227;-53
2023/10/03 00:28:56;;;;;;;17.58;8.40;;;;;;;15.07;95.69;64544.28;5071720;28;20200;-52
2023/10/03 00:31:22;;;;;;;10.50;7.82;;;;;;;14.97;95.94;64535.28;5071877;28;20213;-53
2023/10/03 00:33:47;;;;;;;13.45;7.72;;;;;;;15.07;94.82;64544.28;5071616;28;20551;-52
2023/10/03 00:36:21;;;;;;;15.07;8.25;;;;;;;14.95;95.99;64530.53;5071503;28;20197;-54
2023/10/03 00:38:47;;;;;;;11.93;8.18;;;;;;;14.83;97.10;64520.44;5070421;28;20204;-54
2023/10/03 00:41:13;;;;;;;13.60;7.78;;;;;;;14.82;97.19;64519.34;5071342;28;20710;-52
2023/10/03 00:43:54;;;;;;;14.63;8.23;;;;;;;14.79;95.94;64515.50;5071360;28;20685;-52
2023/10/03 00:46:21;;;;;;;15.02;8.52;;;;;;;14.90;95.16;64527.59;5071320;28;20235;-54
2023/10/03 00:48:47;;;;;;;14.68;8.18;;;;;;;14.93;95.71;64531.44;5071574;28;20209;-53
2023/10/03 00:51:14;;;;;;;12.52;7.28;;;;;;;14.95;94.72;64535.59;5071450;28;20201;-55
2023/10/03 00:53:40;;;;;;;16.75;7.72;;;;;;;14.91;94.32;64529.22;5071476;28;20193;-53
2023/10/03 00:56:11;;;;;;;12.88;7.25;;;;;;;14.87;94.24;64522.28;5071312;28;20242;-55
2023/10/03 00:58:37;;;;;;;12.98;7.50;;;;;;;14.77;95.12;64511.31;5070183;28;20212;-54
2023/10/03 01:01:03;;;;;;;10.95;6.85;;;;;;;14.70;95.26;64503.63;5071012;28;20278;-54
2023/10/03 01:03:35;;;;;;;13.80;6.57;;;;;;;14.70;94.52;64506.16;5071085;28;20220;-54
2023/10/03 01:06:09;;;;;;;13.43;6.05;;;;;;;14.74;93.13;64510.56;5069716;28;20288;-54
2023/10/03 01:08:39;;;;;;;12.27;6.72;;;;;;;14.69;95.02;64504.50;5071202;28;20204;-53
2023/10/03 01:11:15;;;;;;;12.10;7.10;;;;;;;14.66;94.35;64501.22;5071141;28;20205;-52
2023/10/03 01:14:00;;;;;;;10.63;6.97;;;;;;;14.66;94.35;64501.75;5069683;28;20249;-54
2023/10/03 01:16:29;;;;;;;15.65;6.32;;;;;;;14.77;93.26;64511.31;5070931;28;20208;-59
2023/10/03 01:18:59;;;;;;;10.73;6.22;;;;;;;14.77;93.35;64513.84;5070543;28;20646;-54
2023/10/03 01:21:25;;;;;;;13.30;6.15;;;;;;;14.77;93.68;64513.28;5069482;28;20281;-54
2023/10/03 01:23:50;;;;;;;12.95;6.20;;;;;;;14.73;93.41;64508.88;5070885;28;20207;-53
2023/10/03 01:26:17;;;;;;;13.95;6.18;;;;;;;14.74;94.54;64510.00;5070701;28;20181;-53
2023/10/03 01:28:44;;;;;;;9.15;6.10;;;;;;;14.76;94.62;64512.19;5070705;28;20211;-53
2023/10/03 01:31:10;;;;;;;11.82;6.63;;;;;;;14.75;93.57;64511.09;5069398;28;20208;-53
2023/10/03 01:33:36;;;;;;;10.30;6.35;;;;;;;14.79;92.38;64513.50;5070854;28;20587;-55
2023/10/03 01:36:03;;;;;;;11.55;6.43;;;;;;;14.82;92.48;64518.78;5070791;28;20197;-56
2023/10/03 01:38:29;;;;;;;11.00;6.35;;;;;;;14.79;92.91;64516.03;5069380;28;20249;-53
2023/10/03 01:41:00;;;;;;;11.40;6.03;;;;;;;14.72;93.01;64508.34;5070370;28;20224;-53
2023/10/03 01:43:26;;;;;;;11.35;6.80;;;;;;;14.62;94.02;64497.38;5070662;28;20196;-53
2023/10/03 01:45:53;;;;;;;10.35;6.47;;;;;;;14.71;93.21;64506.69;5070715;28;20592;-53
2023/10/03 01:48:19;;;;;;;9.27;5.70;;;;;;;14.67;93.79;64502.28;5069198;28;20205;-54
2023/10/03 01:50:44;;;;;;;7.95;5.90;;;;;;;14.45;93.73;64480.66;5070400;28;20230;-53
2023/10/03 01:53:11;;;;;;;13.48;6.85;;;;;;;14.64;93.89;64497.03;5070253;28;20688;-52
2023/10/03 01:55:38;;;;;;;11.73;6.00;;;;;;;14.73;93.35;64508.88;5069662;28;20220;-52
2023/10/03 01:58:04;;;;;;;11.15;6.63;;;;;;;14.66;93.90;64499.22;5070435;28;20207;-53
2023/10/03 02:00:30;;;;;;;11.80;6.57;;;;;;;14.53;94.97;64486.91;5070723;28;20223;-56
2023/10/03 02:03:13;;;;;;;12.57;6.30;;;;;;;14.42;95.98;64475.38;5068683;28;20212;-56
2023/10/03 02:05:41;;;;;;;10.48;7.15;;;;;;;14.36;96.39;64465.72;5070429;28;20216;-56
2023/10/03 02:08:16;;;;;;;11.52;6.65;;;;;;;14.32;96.69;64462.41;5069664;28;20209;-53
2023/10/03 02:10:47;;;;;;;15.05;6.90;;;;;;;14.25;97.27;64456.69;5070279;28;20204;-54
2023/10/03 02:13:23;;;;;;;16.65;6.50;;;;;;;14.21;97.58;64452.28;5070292;28;20571;-55
2023/10/03 02:15:51;;;;;;;11.60;6.43;;;;;;;14.22;96.99;64453.94;5070646;28;20215;-52
2023/10/03 02:18:18;;;;;;;12.40;6.50;;;;;;;14.28;96.90;64460.53;5070039;28;20208;-52
2023/10/03 02:21:01;;;;;;;11.95;6.90;;;;;;;14.20;97.66;64451.19;5070436;28;20285;-56
2023/10/03 02:23:27;;;;;;;12.48;7.50;;;;;;;14.12;97.52;64445.47;5070183;28;20253;-54
2023/10/03 02:26:04;;;;;;;18.40;8.02;;;;;;;13.94;99.06;64420.63;5070515;28;20287;-53
2023/10/03 02:28:30;;;;;;;12.77;7.75;;;;;;;13.80;100.00;64404.72;5070644;28;20208;-52
2023/10/03 02:30:57;;;;;;;13.23;7.53;;;;;;;13.86;99.33;64411.31;5072161;28;20278;-53
2023/10/03 02:33:22;;;;;;;9.55;6.35;;;;;;;13.89;99.45;64417.13;5073542;28;20205;-56
2023/10/03 02:35:48;;;;;;;12.65;7.35;;;;;;;13.85;100.00;64410.75;5072078;28;20254;-56
2023/10/03 02:38:24;;;;;;;13.68;7.22;;;;;;;13.86;99.71;64411.84;5073213;28;20212;-58
2023/10/03 02:40:59;;;;;;;13.00;7.95;;;;;;;13.76;100.00;64402.84;5073834;28;20211;-56
2023/10/03 02:43:33;;;;;;;12.02;7.50;;;;;;;13.69;100.00;64393.19;5073652;28;20207;-54
2023/10/03 02:45:59;;;;;;;17.52;8.10;;;;;;;13.74;100.00;64400.66;5071844;28;20200;-55
2023/10/03 02:48:25;;;;;;;13.70;7.65;;;;;;;13.76;99.86;64400.31;5055440;28;20299;-52
2023/10/03 02:50:51;;;;;;;14.27;8.48;;;;;;;13.79;100.00;64406.16;5073357;28;20292;-52
2023/10/03 02:53:20;;;;;;;13.25;7.63;;;;;;;13.80;99.82;64407.78;5072984;28;20209;-52
2023/10/03 02:55:51;;;;;;;14.52;7.45;;;;;;;13.99;98.64;64425.59;5072957;28;20698;-52
2023/10/03 02:58:19;;;;;;;14.77;8.02;;;;;;;13.85;99.92;64412.75;5073065;28;20289;-53
2023/10/03 03:00:46;;;;;;;19.27;6.68;;;;;;;13.90;98.92;64415.69;5073326;28;20200;-52
2023/10/03 03:03:12;;;;;;;10.38;6.43;;;;;;;13.79;98.37;64406.16;5072984;28;20211;-53
2023/10/03 03:05:38;;;;;;;10.38;6.82;;;;;;;13.89;97.98;64414.59;5071793;28;20224;-52
2023/10/03 03:10:51;;;;;;;12.68;6.25;;;;;;;13.66;99.57;64389.91;5073210;28;20238;-53
2023/10/03 03:13:18;;;;;;;12.52;6.15;;;;;;;13.62;100.00;64385.50;5072957;28;20249;-53
2023/10/03 03:15:59;;;;;;;16.55;6.50;;;;;;;13.69;99.56;64397.72;5073032;28;20205;-53
2023/10/03 03:18:25;;;;;;;10.10;5.47;;;;;;;13.56;99.58;64380.91;5073021;28;20248;-57
2023/10/03 03:20:57;;;;;;;9.68;5.30;;;;;;;13.65;98.34;64390.78;5071218;28;20269;-53
2023/10/03 03:23:24;;;;;;;12.25;4.78;;;;;;;13.62;98.11;64387.47;5072963;28;20204;-56
2023/10/03 03:25:57;;;;;;;11.43;6.28;;;;;;;13.49;99.51;64374.31;5073220;28;20249;-57
2023/10/03 03:28:23;;;;;;;11.63;5.43;;;;;;;13.46;99.98;64371.03;5071219;28;20205;-56
2023/10/03 03:30:56;;;;;;;7.63;5.22;;;;;;;13.42;99.74;64368.63;5072857;28;20197;-54
2023/10/03 03:33:27;;;;;;;12.55;6.28;;;;;;;13.44;100.00;64366.28;5072437;28;20208;-55
2023/10/03 03:35:53;;;;;;;10.27;6.10;;;;;;;13.38;98.59;64362.25;5072809;28;20208;-53
2023/10/03 03:38:20;;;;;;;13.80;7.22;;;;;;;13.29;97.85;64352.34;5072366;28;20726;-53
2023/10/03 03:40:47;;;;;;;15.35;6.75;;;;;;;13.23;97.74;64342.72;5071902;28;20282;-53
2023/10/03 03:43:17;;;;;;;21.08;7.22;;;;;;;13.23;97.46;64340.19;5072312;28;20212;-53
2023/10/03 03:45:45;;;;;;;13.75;6.45;;;;;;;13.20;98.91;64344.47;5072545;28;20209;-52
2023/10/03 03:48:13;;;;;;;11.73;6.63;;;;;;;13.44;96.88;64365.75;5072170;28;20216;-52
2023/10/03 03:50:39;;;;;;;12.95;7.03;;;;;;;13.43;96.87;64367.19;5072572;28;20209;-52
2023/10/03 03:53:06;;;;;;;15.55;7.55;;;;;;;13.30;97.84;64350.38;5070761;28;20207;-52
2023/10/03 03:55:36;;;;;;;15.10;7.28;;;;;;;13.32;97.55;64355.66;5072296;28;20242;-53
2023/10/03 03:58:07;;;;;;;13.15;7.57;;;;;;;13.33;97.75;64354.22;5071929;28;20215;-53
2023/10/03 04:00:34;;;;;;;14.70;7.57;;;;;;;13.24;98.05;64346.88;5072298;28;20205;-53
2023/10/03 04:03:05;;;;;;;13.52;7.75;;;;;;;13.12;100.00;64330.63;5070675;28;20220;-53
2023/10/03 04:05:33;;;;;;;10.35;6.60;;;;;;;13.14;100.00;64332.81;5072067;28;20291;-55
2023/10/03 04:07:59;;;;;;;9.93;6.63;;;;;;;13.06;100.00;64326.56;5071940;28;20223;-54
2023/10/03 04:10:26;;;;;;;11.13;6.68;;;;;;;13.03;100.00;64323.25;5072266;28;20237;-55
2023/10/03 04:12:54;;;;;;;12.38;6.65;;;;;;;13.01;100.00;64319.06;5071880;28;20200;-54
2023/10/03 04:15:20;;;;;;;11.63;6.93;;;;;;;12.98;100.00;64315.25;5072179;28;20262;-53
2023/10/03 04:17:50;;;;;;;16.05;8.50;;;;;;;12.93;100.00;64310.28;5070351;28;20227;-53
2023/10/03 04:20:23;;;;;;;16.63;8.73;;;;;;;13.22;100.00;64342.16;5072004;28;20223;-53
2023/10/03 04:22:50;;;;;;;16.40;8.50;;;;;;;13.11;100.00;64332.59;5070470;28;20221;-56
2023/10/03 04:25:20;;;;;;;17.17;9.23;;;;;;;13.26;100.00;64349.06;5071786;28;20209;-54
2023/10/03 04:27:51;;;;;;;19.67;7.80;;;;;;;14.21;100.00;64449.75;5071889;28;20212;-53
2023/10/03 04:30:23;;;;;;;12.68;8.52;;;;;;;14.29;100.00;64459.13;5072161;28;20209;-53
2023/10/03 04:32:49;;;;;;;16.70;8.38;;;;;;;13.76;100.00;64402.84;5071499;28;20204;-55
2023/10/03 04:35:15;;;;;;;20.40;9.13;;;;;;;13.60;100.00;64383.31;5071359;28;20193;-53
2023/10/03 04:37:43;;;;;;;14.13;8.68;;;;;;;13.36;100.00;64357.53;5070093;28;20213;-53
2023/10/03 04:40:13;;;;;;;14.70;8.40;;;;;;;13.38;100.00;64361.69;5071815;28;20720;-52
2023/10/03 04:42:40;;;;;;;15.77;8.80;;;;;;;13.38;100.00;64362.25;5071347;28;20639;-53
2023/10/03 04:45:10;;;;;;;13.77;8.40;;;;;;;13.38;100.00;64362.25;5071673;28;20231;-53
2023/10/03 04:47:37;;;;;;;14.98;8.38;;;;;;;13.39;100.00;64365.31;5071270;28;20208;-53
2023/10/03 04:50:03;;;;;;;18.33;8.88;;;;;;;13.37;100.00;64358.59;5071076;28;20217;-53
2023/10/03 04:52:28;;;;;;;14.93;7.85;;;;;;;13.40;100.00;64363.88;5070178;28;20218;-53
2023/10/03 04:54:54;;;;;;;15.50;8.03;;;;;;;13.39;100.00;64363.31;5070103;28;20732;-52
2023/10/03 04:57:19;;;;;;;18.02;9.45;;;;;;;13.39;100.00;64360.81;5071196;28;20243;-53
2023/10/03 04:59:45;;;;;;;19.15;10.23;;;;;;;13.40;100.00;64364.44;5071464;28;20732;-55
2023/10/03 05:02:11;;;;;;;17.10;8.82;;;;;;;13.54;100.00;64379.25;5070802;28;20209;-56
2023/10/03 05:04:37;;;;;;;16.10;9.15;;;;;;;13.59;100.00;64381.66;5071376;28;20189;-55
2023/10/03 05:07:02;;;;;;;15.93;8.98;;;;;;;13.62;100.00;64384.94;5071198;28;20797;-55
2023/10/03 05:09:30;;;;;;;19.30;8.73;;;;;;;13.65;100.00;64390.78;5070821;28;20227;-56
2023/10/03 05:11:56;;;;;;;15.48;9.07;;;;;;;13.78;100.00;64405.03;5070743;28;20244;-55
2023/10/03 05:14:22;;;;;;;12.70;7.25;;;;;;;13.68;100.00;64394.06;5069550;28;20243;-55
2023/10/03 05:16:50;;;;;;;15.43;8.18;;;;;;;13.68;100.00;64391.53;5070794;28;20212;-55
2023/10/03 05:19:17;;;;;;;16.98;8.23;;;;;;;13.60;100.00;64385.28;5069575;28;20282;-54
2023/10/03 05:21:44;;;;;;;18.17;7.60;;;;;;;13.91;100.00;64419.88;5070583;28;20212;-54
2023/10/03 05:24:15;;;;;;;14.27;8.30;;;;;;;13.87;100.00;64412.41;5070902;28;20201;-55
2023/10/03 05:26:41;;;;;;;16.92;8.23;;;;;;;13.86;100.00;64411.84;5069155;28;20217;-53
2023/10/03 05:29:07;;;;;;;15.77;8.15;;;;;;;13.98;100.00;64424.47;5070308;28;20201;-53
2023/10/03 05:31:34;;;;;;;18.15;7.80;;;;;;;14.03;100.00;64432.50;5068387;28;20215;-52
2023/10/03 05:34:00;;;;;;;15.15;8.23;;;;;;;13.88;100.00;64413.50;5067079;28;20209;-52
2023/10/03 05:36:27;;;;;;;18.23;8.32;;;;;;;13.75;100.00;64399.22;5068570;28;20215;-53
2023/10/03 05:38:52;;;;;;;12.55;7.60;;;;;;;13.77;100.00;64404.50;5066901;28;20607;-53
2023/10/03 05:41:23;;;;;;;16.55;7.57;;;;;;;13.68;100.00;64394.63;5067664;28;20686;-52
2023/10/03 05:43:48;;;;;;;10.00;6.65;;;;;;;13.43;100.00;64364.66;5070834;28;20701;-53
2023/10/03 05:46:14;;;;;;;14.77;6.93;;;;;;;13.38;100.00;64359.72;5070616;28;20209;-54
2023/10/03 05:48:41;;;;;;;9.27;6.23;;;;;;;13.32;100.00;64355.09;5070517;28;20286;-54
2023/10/03 05:51:07;;;;;;;9.73;6.43;;;;;;;13.14;100.00;64335.91;5070460;28;20224;-55
2023/10/03 05:53:32;;;;;;;13.75;6.78;;;;;;;13.04;100.00;64324.94;5070477;28;20243;-54
2023/10/03 05:55:58;;;;;;;17.60;6.88;;;;;;;13.05;100.00;64320.97;5070396;28;20207;-54
2023/10/03 05:58:24;;;;;;;11.25;6.82;;;;;;;13.33;100.00;64353.69;5070311;28;20735;-55
2023/10/03 06:00:49;;;;;;;15.82;7.90;;;;;;;13.21;100.00;64343.03;5070774;28;20553;-53
2023/10/03 06:03:16;;;;;;;13.98;8.13;;;;;;;13.19;100.00;64341.38;5070214;28;20212;-53
2023/10/03 06:05:42;;;;;;;14.15;8.13;;;;;;;13.00;100.00;64317.44;5072510;28;20216;-53
2023/10/03 06:08:12;;;;;;;13.47;8.97;;;;;;;13.12;100.00;64333.72;5073715;28;20217;-52
2023/10/03 06:10:38;;;;;;;16.63;8.38;;;;;;;13.18;100.00;64340.28;5074080;28;20311;-52
2023/10/03 06:13:05;;;;;;;14.43;8.85;;;;;;;13.45;100.00;64367.38;5073869;28;20217;-53
2023/10/03 06:15:35;;;;;;;15.68;9.40;;;;;;;13.34;100.00;64357.84;5074006;28;20261;-53
2023/10/03 06:18:01;;;;;;;19.58;9.85;;;;;;;13.46;100.00;64371.03;5073785;28;20211;-54
2023/10/03 06:20:34;;;;;;;13.90;8.93;;;;;;;13.29;100.00;64351.81;5073776;28;20201;-53
2023/10/03 06:23:00;;;;;;;14.85;8.80;;;;;;;13.23;100.00;64345.25;5072514;28;20224;-55
2023/10/03 06:25:26;;;;;;;15.32;8.60;;;;;;;13.22;100.00;64341.59;5072463;28;20211;-54
2023/10/03 06:27:51;;;;;;;14.27;8.67;;;;;;;13.41;100.00;64365.53;5073734;28;20587;-53
2023/10/03 06:30:18;;;;;;;13.18;8.77;;;;;;;13.38;100.00;64362.25;5073958;28;20302;-53
2023/10/03 06:32:45;;;;;;;14.52;9.15;;;;;;;13.55;100.00;64379.81;5073323;28;20712;-52
2023/10/03 06:35:12;;;;;;;14.27;9.95;;;;;;;13.70;100.00;64396.81;5073647;28;20295;-52
2023/10/03 06:37:38;;;;;;;18.42;10.23;;;;;;;13.71;100.00;64395.41;5072393;28;20217;-53
2023/10/03 06:40:08;;;;;;;13.75;8.48;;;;;;;13.83;100.00;64408.00;5073517;28;20204;-52
2023/10/03 06:42:35;;;;;;;16.65;9.02;;;;;;;14.06;100.00;64435.78;5073238;28;20209;-53
2023/10/03 06:45:03;;;;;;;14.93;9.55;;;;;;;14.08;100.00;64438.00;5073586;28;20201;-54
2023/10/03 06:47:30;;;;;;;13.15;9.05;;;;;;;14.04;100.00;64433.59;5073345;28;20219;-53
2023/10/03 06:49:56;;;;;;;16.25;8.45;;;;;;;13.95;100.00;64421.19;5073528;28;20208;-53
2023/10/03 06:52:21;;;;;;;16.63;8.68;;;;;;;14.08;100.00;64438.00;5073063;28;20280;-52
2023/10/03 06:54:47;;;;;;;12.90;7.78;;;;;;;14.24;100.00;64455.59;5073338;28;20205;-53
2023/10/03 06:57:14;;;;;;;16.65;9.10;;;;;;;14.45;100.00;64475.59;5073271;28;20270;-53
2023/10/03 06:59:40;;;;;;;14.27;9.30;;;;;;;14.51;100.00;64485.28;5073061;28;20207;-54
2023/10/03 07:02:07;;;;;;;14.18;8.80;;;;;;;14.77;100.00;64508.78;5072915;28;20652;-52
2023/10/03 07:04:33;;;;;;;16.70;9.32;;;;;;;14.90;100.00;64527.59;5073098;28;20605;-55
2023/10/03 07:06:59;;;;;;;14.13;9.25;;;;;;;14.79;100.00;64513.50;5072993;28;20205;-53
2023/10/03 07:09:24;;;;;;;14.55;9.60;;;;;;;14.78;100.00;64512.41;5073095;28;20208;-52
2023/10/03 07:11:50;;;;;;;19.98;9.55;;;;;;;14.78;100.00;64514.94;5072864;28;20215;-55
2023/10/03 07:14:16;;;;;;;15.30;9.85;;;;;;;14.70;100.00;64503.63;5073152;28;20686;-53
2023/10/03 07:16:44;;;;;;;19.80;9.43;;;;;;;14.75;99.88;64508.56;5072124;28;20241;-53
2023/10/03 07:19:10;;;;;;;18.90;9.90;;;;;;;14.83;99.08;64520.44;5072715;28;20208;-56
2023/10/03 07:21:37;;;;;;;16.23;9.93;;;;;;;14.91;98.51;64529.22;5072807;28;20297;-53
2023/10/03 07:24:03;;;;;;;24.60;10.05;;;;;;;15.03;97.08;64539.34;5072966;28;20196;-55
2023/10/03 07:26:29;;;;;;;19.48;10.52;;;;;;;15.15;97.20;64553.06;5073128;28;20255;-55
2023/10/03 07:28:58;;;;;;;21.25;11.20;;;;;;;15.26;94.38;64562.09;5072975;28;20209;-56
2023/10/03 07:31:25;;;;;;;18.85;11.00;;;;;;;15.25;93.99;64562.97;5072554;28;20209;-55
2023/10/03 07:33:52;;;;;;;22.27;11.10;;;;;;;15.29;93.91;64569.91;5072724;28;20219;-56
2023/10/03 07:36:18;;;;;;;20.80;11.30;;;;;;;15.37;93.32;64576.19;5072508;28;20309;-55
2023/10/03 07:38:47;;;;;;;19.80;10.57;;;;;;;15.69;91.23;64611.41;5072563;28;20216;-54
2023/10/03 07:41:18;;;;;;;20.08;10.77;;;;;;;15.33;93.15;64574.31;5072709;28;20266;-55
2023/10/03 07:43:47;;;;;;;18.25;11.25;;;;;;;15.32;92.75;64571.22;5071214;28;20197;-55
2023/10/03 07:46:23;;;;;;;20.23;11.10;;;;;;;15.40;93.35;64579.47;5072455;28;20216;-55
2023/10/03 07:48:53;;;;;;;18.08;10.50;;;;;;;15.52;92.32;64593.25;5072515;28;20233;-55
2023/10/03 07:51:20;;;;;;;18.70;9.82;;;;;;;15.63;92.10;64604.81;5071118;28;20653;-53
2023/10/03 07:53:47;;;;;;;23.08;11.15;;;;;;;15.77;89.45;64620.19;5072488;28;20288;-59
2023/10/03 07:56:25;;;;;;;18.80;9.73;;;;;;;15.67;90.32;64604.69;5070886;28;20207;-55
2023/10/03 07:58:53;;;;;;;20.95;10.75;;;;;;;16.18;85.30;64667.31;5072225;28;20216;-53
2023/10/03 08:01:26;;;;;;;18.67;10.32;;;;;;;16.28;86.02;64678.84;5071911;28;20767;-53
2023/10/03 08:03:53;;;;;;;21.02;10.10;;;;;;;16.00;86.36;64645.50;5072354;28;20216;-53
2023/10/03 08:06:22;;;;;;;18.50;10.18;;;;;;;16.42;83.97;64693.72;5070846;28;20608;-53
2023/10/03 08:08:48;;;;;;;20.45;10.50;;;;;;;16.59;84.31;64707.38;5071214;28;20201;-52
2023/10/03 08:11:14;;;;;;;17.52;9.80;;;;;;;16.88;80.99;64741.84;5071951;28;20193;-54
2023/10/03 08:13:42;;;;;;;21.15;9.88;;;;;;;17.06;80.74;64761.13;5070605;28;20258;-55
2023/10/03 08:16:08;;;;;;;18.15;9.48;;;;;;;17.10;80.87;64766.09;5072135;28;20193;-56
2023/10/03 08:18:46;;;;;;;17.38;9.82;;;;;;;17.26;80.26;64783.16;5070851;28;20210;-55
2023/10/03 08:21:12;;;;;;;17.75;9.30;;;;;;;17.53;78.69;64812.94;5071655;28;20242;-55
2023/10/03 08:23:37;;;;;;;18.52;10.18;;;;;;;17.70;75.81;64831.66;5071932;28;20196;-53
2023/10/03 08:26:03;;;;;;;19.15;9.20;;;;;;;17.73;73.61;64832.44;5070509;28;20200;-54
2023/10/03 08:28:32;;;;;;;22.08;9.45;;;;;;;17.50;74.56;64807.09;5069614;28;20196;-54
2023/10/03 08:31:06;;;;;;;17.75;10.07;;;;;;;17.15;74.82;64771.59;5071695;28;20273;-54
2023/10/03 08:33:36;;;;;;;18.50;9.90;;;;;;;17.32;74.60;64789.78;5071886;28;20323;-54
2023/10/03 08:36:17;;;;;;;21.05;9.80;;;;;;;17.34;73.52;64794.53;5070138;28;20710;-55
2023/10/03 08:38:43;;;;;;;17.73;9.32;;;;;;;17.58;73.60;64818.44;5070177;28;20288;-53
2023/10/03 08:41:24;;;;;;;17.17;9.88;;;;;;;17.87;72.93;64847.31;5071639;28;20235;-54
2023/10/03 08:43:57;;;;;;;20.77;8.23;;;;;;;18.39;71.14;64907.19;5071654;28;20201;-54
2023/10/03 08:46:29;;;;;;;18.73;9.15;;;;;;;18.74;68.88;64942.72;5070208;28;20228;-54
2023/10/03 08:49:00;;;;;;;12.82;7.95;;;;;;;19.12;70.11;64987.22;5071445;28;20209;-54
2023/10/03 08:51:32;;;;;;;18.63;8.95;;;;;;;19.40;66.99;65018.16;5071519;28;20219;-55
2023/10/03 08:54:12;;;;;;;17.30;8.35;;;;;;;19.85;65.94;65065.28;5070180;28;20212;-55
2023/10/03 08:56:41;;;;;;;16.33;8.35;;;;;;;20.13;64.10;65095.09;5070183;28;20238;-55
2023/10/03 08:59:09;;;;;;;20.33;8.90;;;;;;;20.43;64.07;65128.25;5071358;28;20212;-55
2023/10/03 09:01:43;;;;;;;15.52;8.48;;;;;;;20.68;63.37;65155.91;5069826;28;20213;-55
2023/10/03 09:04:15;;;;;;;16.58;8.88;;;;;;;20.90;59.33;65182.78;5071349;28;20227;-57
2023/10/03 09:06:45;;;;;;;18.48;9.38;;;;;;;21.29;60.50;65225.91;5069672;28;20245;-55
2023/10/03 09:09:16;;;;;;;16.10;8.02;;;;;;;21.54;60.06;65248.44;5071212;28;20204;-53
2023/10/03 09:11:43;;;;;;;13.82;8.68;;;;;;;21.83;57.27;65284.56;5069550;28;20212;-52
2023/10/03 09:14:19;;;;;;;16.60;8.88;;;;;;;21.93;55.63;65296.19;5071001;28;20654;-54
2023/10/03 09:16:50;;;;;;;13.95;8.38;;;;;;;21.58;55.77;65252.31;5069737;28;20721;-52
2023/10/03 09:19:26;;;;;;;15.85;7.85;;;;;;;21.75;58.75;65273.69;5069860;28;20205;-52
2023/10/03 09:21:55;;;;;;;14.38;8.77;;;;;;;22.17;55.97;65320.19;5069417;28;20224;-52
2023/10/03 09:24:22;;;;;;;11.95;7.63;;;;;;;22.13;53.61;65315.19;5070739;28;20292;-53
2023/10/03 09:26:54;;;;;;;15.55;8.20;;;;;;;21.89;53.81;65288.66;5070788;28;20223;-55
2023/10/03 09:29:30;;;;;;;18.15;8.07;;;;;;;22.03;55.23;65306.69;5071025;28;20196;-55
2023/10/03 09:32:12;;;;;;;16.48;7.30;;;;;;;22.47;55.90;65355.41;5070716;28;20283;-55
2023/10/03 09:34:40;;;;;;;13.95;6.93;;;;;;;22.78;52.73;65386.63;5071299;28;20193;-57
2023/10/03 09:37:06;;;;;;;10.77;6.40;;;;;;;22.79;68.25;65388.28;5070567;28;20240;-55
2023/10/03 09:39:39;;;;;;;14.75;7.65;;;;;;;23.44;50.62;65456.63;5070398;28;20357;-55
2023/10/03 09:42:16;;;;;;;12.57;6.78;;;;;;;23.79;52.57;65495.41;5070504;28;20213;-52
2023/10/03 09:44:48;;;;;;;12.18;7.60;;;;;;;23.98;49.92;65517.03;5071075;28;20685;-55
2023/10/03 09:47:17;;;;;;;12.63;7.40;;;;;;;23.94;48.96;65515.16;5070499;28;20263;-52
2023/10/03 09:49:43;;;;;;;13.18;7.47;;;;;;;23.40;49.40;65454.78;5070919;28;20731;-51
2023/10/03 09:52:24;;;;;;;15.13;6.97;;;;;;;24.47;48.13;65572.84;5070363;28;20208;-52
2023/10/03 09:54:54;;;;;;;11.68;7.30;;;;;;;24.83;46.31;65610.78;5070611;28;20212;-54
2023/10/03 09:57:24;;;;;;;15.05;7.22;;;;;;;24.05;46.14;65529.41;5069157;28;20273;-52
2023/10/03 09:59:50;;;;;;;13.15;7.38;;;;;;;24.46;46.32;65572.28;5070619;28;20208;-54
2023/10/03 10:02:30;;;;;;;12.38;6.88;;;;;;;25.19;44.81;65652.75;5070240;28;20246;-54
2023/10/03 10:05:19;;;;;;;8.63;5.80;;;;;;;25.62;44.03;65699.94;5069404;28;20215;-52
2023/10/03 10:08:06;;;;;;;9.75;6.13;;;;;;;25.09;42.99;65641.66;5070233;28;20212;-52
2023/10/03 10:13:22;;;;;;;13.40;6.25;;;;;;;25.74;42.04;65713.25;5069544;28;20252;-53
2023/10/03 10:16:07;;;;;;;11.25;6.25;;;;;;;25.04;40.75;65633.53;5069253;28;20209;-53
2023/10/03 10:18:45;;;;;;;9.98;6.32;;;;;;;24.85;41.09;65612.44;5068509;28;20203;-52
2023/10/03 10:21:23;;;;;;;9.05;5.78;;;;;;;25.69;41.12;65708.25;5069745;28;20201;-55
2023/10/03 10:24:20;;;;;;;10.20;5.88;;;;;;;26.28;40.74;65773.25;5070088;28;20250;-54
2023/10/03 10:26:54;;;;;;;12.00;6.47;;;;;;;26.29;39.93;65774.38;5070408;28;20254;-56
2023/10/03 10:29:24;;;;;;;9.27;5.68;;;;;;;25.72;39.07;65705.88;5070055;28;20193;-55
2023/10/03 10:32:00;;;;;;;8.55;5.72;;;;;;;26.55;38.96;65800.66;5069937;28;20204;-55
2023/10/03 10:34:40;;;;;;;9.77;6.32;;;;;;;26.85;38.05;65835.50;5070354;28;20275;-54
2023/10/03 10:37:09;;;;;;;10.48;6.43;;;;;;;26.49;36.70;65793.44;5069901;28;20287;-56
2023/10/03 10:39:53;;;;;;;11.73;6.68;;;;;;;26.33;37.29;65778.25;5068794;28;20204;-53
2023/10/03 10:42:25;;;;;;;12.35;5.65;;;;;;;26.79;37.14;65826.22;5069760;28;20724;-56
2023/10/03 10:45:02;;;;;;;12.90;6.50;;;;;;;26.79;37.26;65826.22;5068912;28;20296;-54
2023/10/03 10:47:31;;;;;;;8.85;6.30;;;;;;;26.14;38.64;65757.69;5069831;28;20690;-54
2023/10/03 10:50:00;;;;;;;14.30;6.57;;;;;;;26.63;38.27;65809.56;5069811;28;20588;-53
2023/10/03 10:52:29;;;;;;;8.70;6.10;;;;;;;25.69;40.36;65707.72;5072360;28;20310;-53
2023/10/03 10:54:59;;;;;;;11.55;6.35;;;;;;;26.64;38.21;65810.13;5073526;28;20213;-54
2023/10/03 10:57:28;;;;;;;12.35;6.38;;;;;;;26.26;38.90;65771.03;5073274;28;20690;-51
2023/10/03 10:59:55;;;;;;;11.48;5.70;;;;;;;27.06;38.61;65859.41;5073455;28;20219;-51
2023/10/03 11:02:22;;;;;;;9.13;5.65;;;;;;;27.51;37.38;65908.34;5072582;28;20222;-52
2023/10/03 11:04:58;;;;;;;12.90;6.70;;;;;;;27.28;37.36;65883.84;5073244;28;20212;-58
2023/10/03 11:07:26;;;;;;;9.45;6.00;;;;;;;27.31;37.52;65889.78;5072767;28;20673;-55
2023/10/03 11:09:54;;;;;;;10.23;5.97;;;;;;;27.28;37.47;65883.28;5072986;28;20209;-54
2023/10/03 11:12:23;;;;;;;9.55;6.43;;;;;;;27.78;37.67;65938.91;5072807;28;20626;-53
2023/10/03 11:14:48;;;;;;;14.07;6.43;;;;;;;28.14;36.96;65976.38;5073176;28;20232;-53
2023/10/03 11:17:15;;;;;;;12.27;6.60;;;;;;;28.07;36.60;65968.63;5072798;28;20224;-53
2023/10/03 11:19:41;;;;;;;9.82;6.72;;;;;;;28.13;36.02;65974.72;5071456;28;20212;-54
2023/10/03 11:22:11;;;;;;;14.27;6.47;;;;;;;27.57;36.09;65915.00;5072630;28;20246;-54
2023/10/03 11:24:41;;;;;;;8.43;5.93;;;;;;;27.51;35.66;65908.34;5071654;28;20205;-53
2023/10/03 11:27:06;;;;;;;9.05;5.90;;;;;;;27.37;36.21;65893.34;5072401;28;20331;-53
2023/10/03 11:29:48;;;;;;;13.63;7.13;;;;;;;27.79;36.48;65939.47;5072750;28;20704;-53
2023/10/03 11:32:32;;;;;;;10.98;6.15;;;;;;;27.88;35.86;65950.03;5072710;28;20228;-53
2023/10/03 11:35:13;;;;;;;8.70;5.88;;;;;;;27.83;35.82;65944.50;5072533;28;20735;-55
2023/10/03 11:37:44;;;;;;;11.48;6.28;;;;;;;27.94;35.78;65954.13;5072290;28;20213;-54